Airfield :
LOGIN :

Register | Disclaimer

   EN    FR    IT 

 










Legend :    VFR   Marginal VFR   IFR   Intensive IFR   Very Intensive IFR
Visi :
Ceiling :
>= 8 km
>= 3000ft
5 to 8 km
1000 to 3000 ft
1500m to 5 km
500 to 1000 ft
800 to 1500m
200 to 500 ft
< 800m
< 200 ft
Symbols :   Thunderstorms  Fog  Heavy snow  Heavy precipitations  Wind > 20 kt
SIGMETs :     Misc.  Thunderstorms  Icing  Turbulence  Mountain Waves  Volcanic Ashes






- Airport Elevation : 348 ft
- IATA code : LDV


LFRJ - Landivisiau

CURRENT METAR :
  • 190430Z AUTO VRB02KT 0250 R25/0400N R07/0275N FG VV/// 14/14 Q1018

EXPIRED METARs :
  • 190400Z AUTO 15003KT 0350 0300 R25/0450N R07/0400N FG VV/// 14/14 Q1018
  • 190330Z AUTO 23002KT 0350 0300 R25/0400N R07/0450D FG VV/// 14/14 Q1018
  • 190300Z AUTO VRB02KT 0400 0350 R25/0450N R07/0550U FG VV/// 15/14 Q1018
  • 190230Z AUTO VRB03KT 0500 0400 R25/0550U R07/0900D FG VV/// 15/15 Q1018
  • 190200Z AUTO VRB02KT 0400 0300 R25/0450N R07/0650N FG VV/// 16/15 Q1018
  • 190130Z AUTO 30005KT 280V340 0350 0300 R25/0350N R07/0550N FG VV/// 16/15 Q1019
  • 190100Z AUTO 29004KT 0350 0250 R25/0400N R07/0450N FG VV/// 16/15 Q1019
  • 190030Z AUTO 30003KT 0400 0350 R25/0500D R07/0450N FG VV/// 16/15 Q1019
  • 190000Z AUTO 32002KT 0450 0350 R25/0550N R07/0600D FG VV/// 16/15 Q1019
  • 182330Z AUTO VRB02KT 0500 0400 R25/0700D R07/0750D FG VV/// 16/15 Q1019

TAF TAF LFRJ
Valid from the 18 at 21:00 until the 19 at 06:00 UTC


182000Z 1821/1906 VRB03KT CAVOK
BECMG 1821/1824 2000 BR BKN002
PROB40
TEMPO 1823/1906 0300 FG VV///



MET'MAP, your aeronautical weather chart ! - Copyright ORBIFLY December 2007 - Disclaimer

ORBIFLY MET'MAP TEAM :

Programming & Development : Alexandra Zaïnal
Original concept : Baudouin d'Aumeries
Technical & hardware support : Manuel Goepfert
Assistance : Marc-Olivier Méhu




SOURCES & CREDITS :

   NOAA